Time;durP1;ratioP1;P1;durP2;ratioP2;P2;SDS_P1;SDS_P2;PMS_P1;PMS_P2;Temp;Humidity;BMP_temperature;BMP_pressure;BME280_temperature;BME280_humidity;BME280_pressure;Samples;Min_cycle;Max_cycle;Signal;HPM_P1;HPM_P2
2023/07/04 00:03:14;;;;;;;9.00;6.70;;;;;;;16.07;95.21;99870.68;181505;1260;43119;-59
2023/07/04 00:07:21;;;;;;;16.50;6.50;;;;;;;16.02;96.12;99868.25;181417;1261;57945;-59
2023/07/04 00:11:24;;;;;;;12.80;6.90;;;;;;;15.97;95.94;99870.85;181300;1262;43765;-59
2023/07/04 00:15:28;;;;;;;8.00;6.00;;;;;;;15.93;96.00;99872.95;181517;1259;43035;-59
2023/07/04 00:19:32;;;;;;;28.60;13.00;;;;;;;15.91;96.48;99880.55;181583;1259;43760;-59
2023/07/04 00:23:36;;;;;;;18.40;9.80;;;;;;;15.86;96.28;99877.83;181422;1260;42998;-59
2023/07/04 00:27:54;;;;;;;26.00;12.40;;;;;;;15.80;95.89;99872.46;181326;1262;57857;-59
2023/07/04 00:31:58;;;;;;;32.10;16.60;;;;;;;15.74;95.43;99878.20;181524;1261;43066;-58
2023/07/04 00:36:03;;;;;;;31.10;15.40;;;;;;;15.66;96.26;99877.45;181327;1263;43104;-60
2023/07/04 00:40:30;;;;;;;23.60;10.80;;;;;;;15.58;95.75;99882.30;181538;1260;43330;-59
2023/07/04 00:44:37;;;;;;;12.90;8.70;;;;;;;15.47;96.26;99884.39;181378;1261;43019;-58
2023/07/04 00:48:44;;;;;;;20.10;8.50;;;;;;;15.38;96.71;99884.79;181492;1259;58030;-59
2023/07/04 00:52:48;;;;;;;11.60;6.40;;;;;;;15.30;97.65;99884.77;181326;1260;43702;-59
2023/07/04 01:01:27;;;;;;;9.20;6.90;;;;;;;15.14;97.42;99885.38;181344;1260;43112;-58
2023/07/04 01:06:13;;;;;;;19.10;5.70;;;;;;;15.08;98.87;99885.13;181409;1261;43672;-58
2023/07/04 01:10:21;;;;;;;9.70;4.90;;;;;;;14.87;100.00;99884.81;181322;1262;57808;-58
2023/07/04 01:14:26;;;;;;;9.20;6.30;;;;;;;14.76;100.00;99879.70;181372;1260;43120;-59
2023/07/04 01:18:32;;;;;;;8.50;5.00;;;;;;;14.58;100.00;99877.83;181448;1260;43017;-59
2023/07/04 01:23:00;;;;;;;8.20;5.80;;;;;;;14.46;100.00;99874.87;181430;1262;43370;-58
2023/07/04 01:27:04;;;;;;;9.70;5.50;;;;;;;14.43;100.00;99871.54;181357;1262;43403;-59
2023/07/04 01:31:07;;;;;;;14.00;7.00;;;;;;;14.37;100.00;99868.95;181459;1259;59735;-59
2023/07/04 01:36:15;;;;;;;13.10;5.70;;;;;;;14.31;100.00;99864.96;181583;1259;43117;-60
2023/07/04 01:40:18;;;;;;;7.00;5.30;;;;;;;14.22;100.00;99869.30;181478;1262;43090;-60
2023/07/04 01:44:24;;;;;;;8.30;5.40;;;;;;;14.15;100.00;99866.93;181325;1260;43180;-58
2023/07/04 01:48:28;;;;;;;13.40;4.90;;;;;;;14.05;100.00;99869.02;181372;1262;43773;-58
2023/07/04 01:52:32;;;;;;;6.50;5.40;;;;;;;13.97;100.00;99870.25;181433;1263;57387;-59
2023/07/04 01:56:37;;;;;;;4.90;4.20;;;;;;;13.93;100.00;99873.16;181330;1261;43077;-58
2023/07/04 02:00:55;;;;;;;12.00;5.60;;;;;;;13.92;100.00;99880.01;181407;1260;42998;-58
2023/07/04 02:04:58;;;;;;;11.10;5.50;;;;;;;13.98;100.00;99881.16;181394;1260;43097;-60
2023/07/04 02:09:01;;;;;;;10.80;5.20;;;;;;;14.03;100.00;99874.80;181500;1260;43463;-59
2023/07/04 02:13:04;;;;;;;12.60;6.40;;;;;;;14.05;100.00;99871.05;181376;1262;58181;-58
2023/07/04 02:17:07;;;;;;;7.90;5.80;;;;;;;14.07;100.00;99874.42;181376;1261;43009;-60
2023/07/04 02:21:10;;;;;;;7.70;4.80;;;;;;;14.13;100.00;99873.50;181452;1259;43004;-59
2023/07/04 02:25:13;;;;;;;10.80;5.40;;;;;;;14.12;100.00;99875.84;181468;1262;43670;-58
2023/07/04 02:29:16;;;;;;;10.30;5.10;;;;;;;14.10;100.00;99879.07;181411;1261;43408;-58
2023/07/04 02:33:30;;;;;;;9.10;5.90;;;;;;;14.11;100.00;99874.13;181487;1263;59502;-59
2023/07/04 02:37:33;;;;;;;9.30;5.10;;;;;;;14.12;100.00;99870.96;181594;1262;43125;-58
2023/07/04 02:41:49;;;;;;;15.10;6.40;;;;;;;14.17;100.00;99871.95;181403;1262;43485;-59
2023/07/04 02:45:52;;;;;;;7.10;4.70;;;;;;;14.24;100.00;99868.58;181394;1262;43221;-59
2023/07/04 02:50:17;;;;;;;11.40;5.90;;;;;;;14.23;100.00;99864.73;181402;1260;43717;-59
2023/07/04 02:54:20;;;;;;;19.70;6.90;;;;;;;14.22;100.00;99867.67;181429;1262;58345;-60
2023/07/04 02:58:24;;;;;;;8.60;4.20;;;;;;;14.16;100.00;99865.46;181421;1260;43681;-58
2023/07/04 03:02:28;;;;;;;12.20;6.00;;;;;;;14.13;100.00;99864.84;181409;1262;43340;-58
2023/07/04 03:06:38;;;;;;;12.60;6.20;;;;;;;14.15;100.00;99869.08;181443;1260;43971;-58
2023/07/04 03:10:45;;;;;;;14.50;5.90;;;;;;;14.20;100.00;99866.66;181420;1260;43651;-58
2023/07/04 03:14:48;;;;;;;10.70;6.70;;;;;;;14.31;100.00;99870.80;181406;1262;59046;-59
2023/07/04 03:18:51;;;;;;;11.10;5.40;;;;;;;14.48;100.00;99870.92;181282;1261;43113;-65
2023/07/04 03:22:54;;;;;;;14.00;5.90;;;;;;;14.45;100.00;99868.84;181256;1260;43108;-63
2023/07/04 03:26:57;;;;;;;38.20;7.30;;;;;;;14.44;100.00;99873.83;181297;1260;43716;-65
2023/07/04 03:31:00;;;;;;;11.40;4.70;;;;;;;14.48;100.00;99876.02;181298;1261;43789;-63
2023/07/04 03:35:04;;;;;;;14.70;6.50;;;;;;;14.55;100.00;99879.38;181327;1260;58274;-63
2023/07/04 03:39:07;;;;;;;10.40;4.90;;;;;;;14.64;100.00;99880.22;181335;1260;43679;-63
2023/07/04 03:43:10;;;;;;;17.90;7.50;;;;;;;14.77;100.00;99878.57;181292;1261;43782;-65
2023/07/04 03:47:13;;;;;;;9.00;5.50;;;;;;;14.98;100.00;99886.75;181310;1261;43142;-63
2023/07/04 03:51:16;;;;;;;10.00;4.80;;;;;;;15.18;100.00;99887.41;181324;1261;43052;-63
2023/07/04 03:55:19;;;;;;;9.40;5.00;;;;;;;15.37;100.00;99884.19;181302;1261;59014;-63
2023/07/04 03:59:23;;;;;;;11.00;5.70;;;;;;;15.65;100.00;99884.95;181367;1260;43555;-63
2023/07/04 04:03:25;;;;;;;11.80;5.20;;;;;;;15.94;99.99;99882.78;181378;1260;43011;-63
2023/07/04 04:07:29;;;;;;;12.80;5.40;;;;;;;16.15;99.12;99883.17;181343;1261;43787;-64
2023/07/04 04:11:32;;;;;;;10.30;4.90;;;;;;;16.39;99.06;99887.49;181163;1262;189315;-63
2023/07/04 04:15:35;;;;;;;10.40;5.20;;;;;;;16.64;98.79;99884.36;181368;1260;58295;-63
2023/07/04 04:19:40;;;;;;;7.70;5.40;;;;;;;16.85;97.80;99880.73;181357;1260;43126;-65
2023/07/04 04:23:43;;;;;;;14.10;5.60;;;;;;;17.04;97.39;99884.13;180789;1262;95217;-88
2023/07/04 04:27:47;;;;;;;5.40;4.00;;;;;;;17.50;98.74;99894.69;180918;1261;44256;-89
2023/07/04 04:31:50;;;;;;;12.90;6.30;;;;;;;18.53;98.59;99890.70;180687;1262;43900;-88
2023/07/04 04:35:54;;;;;;;10.30;5.10;;;;;;;19.71;95.61;99896.26;180658;1261;57229;-88
2023/07/04 04:39:59;;;;;;;18.00;5.50;;;;;;;20.83;88.47;99891.08;180747;1262;44225;-89
2023/07/04 04:44:04;;;;;;;7.10;4.30;;;;;;;21.73;81.62;99890.42;180732;1261;44105;-88
2023/07/04 04:48:08;;;;;;;5.70;3.60;;;;;;;22.56;78.87;99889.23;180738;1262;43982;-89
2023/07/04 04:52:12;;;;;;;12.60;4.60;;;;;;;23.25;73.81;99895.35;180861;1262;43919;-88
2023/07/04 04:56:15;;;;;;;7.10;4.40;;;;;;;23.94;71.16;99895.20;180818;1262;58845;-88
2023/07/04 05:00:19;;;;;;;10.20;4.10;;;;;;;24.43;68.91;99895.81;180687;1262;44128;-89
2023/07/04 05:04:23;;;;;;;27.90;8.00;;;;;;;24.78;67.59;99891.75;180773;1262;44014;-89
2023/07/04 05:08:27;;;;;;;20.90;4.70;;;;;;;25.17;66.08;99896.66;180810;1263;44389;-88
2023/07/04 05:12:31;;;;;;;8.10;4.00;;;;;;;25.38;64.62;99889.92;180870;1262;44138;-88
2023/07/04 05:16:34;;;;;;;10.50;5.70;;;;;;;25.51;62.74;99887.84;180869;1262;58136;-89
2023/07/04 05:30:04;;;;;;;6.30;3.50;;;;;;;26.38;61.46;99893.09;181344;1261;83539;-61
2023/07/04 05:34:07;;;;;;;8.30;4.40;;;;;;;26.60;60.26;99891.09;181325;1262;43025;-61
2023/07/04 05:38:10;;;;;;;4.50;2.90;;;;;;;26.71;59.58;99892.48;181309;1262;59470;-61
2023/07/04 05:43:07;;;;;;;6.20;3.90;;;;;;;26.91;57.57;99888.52;181357;1261;43856;-61
2023/07/04 05:47:10;;;;;;;6.10;3.00;;;;;;;26.92;58.17;99895.10;181437;1260;42960;-62
2023/07/04 05:51:16;;;;;;;5.30;4.00;;;;;;;27.09;57.84;99895.41;181344;1262;43093;-63
2023/07/04 05:55:19;;;;;;;5.80;3.40;;;;;;;27.19;57.67;99898.80;181349;1262;43072;-61
2023/07/04 05:59:22;;;;;;;8.50;3.80;;;;;;;27.27;57.23;99900.42;181369;1261;57737;-62
2023/07/04 06:03:26;;;;;;;4.40;2.90;;;;;;;27.28;55.46;99901.83;181329;1261;43173;-62
2023/07/04 06:07:30;;;;;;;4.10;2.60;;;;;;;27.02;54.75;99901.27;181317;1262;42949;-62
2023/07/04 06:11:36;;;;;;;5.30;2.30;;;;;;;26.91;54.40;99901.20;181341;1262;43091;-62
2023/07/04 06:15:42;;;;;;;9.90;2.80;;;;;;;27.00;54.94;99901.13;181325;1264;43018;-62
2023/07/04 06:19:49;;;;;;;16.40;5.00;;;;;;;27.18;54.58;99899.99;181373;1261;58558;-62
2023/07/04 06:23:55;;;;;;;4.60;1.80;;;;;;;27.30;54.18;99903.25;181449;1262;43102;-62
2023/07/04 06:28:00;;;;;;;5.20;2.70;;;;;;;27.48;54.53;99910.05;181316;1262;43066;-62
2023/07/04 06:32:03;;;;;;;4.50;2.20;;;;;;;27.48;54.76;99906.29;181340;1261;43549;-61
2023/07/04 06:36:12;;;;;;;7.40;3.10;;;;;;;27.26;54.20;99907.21;181324;1262;43665;-62
2023/07/04 06:40:18;;;;;;;6.00;3.20;;;;;;;27.19;55.06;99912.41;181293;1262;59572;-61
2023/07/04 06:44:21;;;;;;;11.00;3.10;;;;;;;27.13;54.99;99912.21;181325;1262;43698;-63
2023/07/04 06:48:26;;;;;;;6.80;2.80;;;;;;;27.25;56.02;99912.65;181331;1262;43734;-62
2023/07/04 06:52:30;;;;;;;2.40;1.70;;;;;;;27.25;55.47;99909.70;181341;1262;43210;-62
2023/07/04 06:56:33;;;;;;;4.70;1.80;;;;;;;27.37;54.95;99912.38;181359;1261;43007;-62
2023/07/04 07:00:37;;;;;;;6.10;2.00;;;;;;;27.34;55.03;99915.05;181341;1262;58189;-61
2023/07/04 07:31:21;;;;;;;4.00;3.40;;;;;;;26.41;56.24;99924.66;181245;1262;43415;-62
2023/07/04 07:45:41;;;;;;;7.90;3.90;;;;;;;26.05;56.79;99920.36;181213;1265;43099;-62
2023/07/04 07:49:44;;;;;;;4.80;2.80;;;;;;;25.90;56.95;99922.37;181205;1264;58021;-62
2023/07/04 07:53:54;;;;;;;6.90;3.30;;;;;;;25.91;57.94;99921.64;181200;1264;43135;-62
2023/07/04 07:57:57;;;;;;;8.80;3.90;;;;;;;26.20;58.04;99925.00;181185;1264;43635;-62
2023/07/04 08:02:04;;;;;;;4.30;3.00;;;;;;;26.14;58.00;99922.86;181215;1265;43150;-62
2023/07/04 08:06:09;;;;;;;5.70;2.90;;;;;;;26.06;57.68;99924.80;181137;1265;43172;-62
2023/07/04 08:10:12;;;;;;;8.10;3.70;;;;;;;26.08;58.03;99923.20;181167;1264;58516;-61
2023/07/04 08:14:17;;;;;;;3.80;3.40;;;;;;;26.33;57.20;99921.06;181181;1265;43069;-61
2023/07/04 08:18:21;;;;;;;5.90;4.10;;;;;;;26.47;57.02;99918.13;181237;1264;43019;-62
2023/07/04 08:22:27;;;;;;;5.30;3.30;;;;;;;26.41;58.14;99918.73;181192;1265;43541;-61
2023/07/04 08:26:31;;;;;;;5.40;3.80;;;;;;;26.01;57.66;99919.41;181168;1265;43014;-62
2023/07/04 08:31:06;;;;;;;4.70;3.40;;;;;;;25.77;59.08;99922.27;181188;1264;59578;-62
2023/07/04 08:35:12;;;;;;;4.00;2.90;;;;;;;25.81;59.25;99920.48;181146;1265;43061;-62
2023/07/04 08:39:18;;;;;;;9.00;3.40;;;;;;;25.71;58.58;99924.42;181239;1264;43377;-62
2023/07/04 08:43:59;;;;;;;4.10;3.70;;;;;;;25.64;60.15;99925.02;181230;1263;43214;-62
2023/07/04 08:48:03;;;;;;;6.20;4.50;;;;;;;26.16;58.81;99924.22;181162;1264;43907;-62
2023/07/04 08:52:16;;;;;;;9.20;3.80;;;;;;;26.46;58.27;99924.00;181333;1262;58047;-61
2023/07/04 08:56:33;;;;;;;4.40;3.90;;;;;;;26.60;56.54;99926.95;181290;1263;43020;-62
2023/07/04 09:00:43;;;;;;;8.20;4.90;;;;;;;26.92;56.11;99926.02;181305;1262;43417;-66
2023/07/04 09:09:54;;;;;;;7.90;3.80;;;;;;;26.24;55.75;99930.17;181244;1264;43038;-61
2023/07/04 09:14:37;;;;;;;7.50;4.60;;;;;;;26.02;56.79;99932.02;181265;1264;58238;-61
2023/07/04 09:18:49;;;;;;;7.90;3.60;;;;;;;26.08;58.89;99934.98;181286;1263;43092;-62
2023/07/04 09:22:54;;;;;;;7.80;4.60;;;;;;;26.35;57.15;99930.15;181200;1262;43715;-61
2023/07/04 09:26:59;;;;;;;7.60;3.70;;;;;;;26.36;57.04;99929.02;181291;1264;43213;-62
2023/07/04 09:31:03;;;;;;;14.10;5.10;;;;;;;26.37;56.10;99926.92;181312;1263;43037;-62
2023/07/04 09:35:10;;;;;;;11.70;6.00;;;;;;;26.57;57.65;99927.23;181347;1262;58163;-62
2023/07/04 09:39:13;;;;;;;7.50;4.50;;;;;;;26.93;57.15;99928.55;181156;1263;43073;-62
2023/07/04 09:48:37;;;;;;;9.10;6.40;;;;;;;27.13;54.45;99921.20;181227;1268;43156;-62
2023/07/04 09:52:41;;;;;;;7.60;5.40;;;;;;;27.03;53.50;99925.16;181202;1264;43837;-62
2023/07/04 09:56:45;;;;;;;7.90;5.80;;;;;;;27.11;54.47;99925.52;181254;1262;58034;-62
2023/07/04 10:01:11;;;;;;;8.10;6.20;;;;;;;27.07;52.12;99930.69;181232;1264;43350;-62
2023/07/04 10:05:23;;;;;;;8.40;6.00;;;;;;;26.84;50.99;99930.21;181236;1264;42990;-62
2023/07/04 10:09:26;;;;;;;11.50;7.10;;;;;;;26.71;52.22;99929.54;181244;1264;43538;-62
2023/07/04 10:28:13;;;;;;;8.10;5.30;;;;;;;26.83;51.31;99930.92;179373;1260;83243;-61
2023/07/04 10:32:17;;;;;;;8.30;5.40;;;;;;;26.93;52.20;99932.66;181271;1264;43998;-62
2023/07/04 10:36:26;;;;;;;10.40;6.00;;;;;;;27.03;52.16;99939.61;181276;1263;43582;-61
2023/07/04 10:40:34;;;;;;;7.30;5.80;;;;;;;27.24;51.80;99933.66;181273;1262;58361;-62
2023/07/04 10:44:40;;;;;;;9.30;6.10;;;;;;;27.25;51.37;99931.77;181269;1262;43163;-62
2023/07/04 10:48:51;;;;;;;9.80;5.80;;;;;;;27.50;53.44;99935.81;181331;1262;43379;-61
2023/07/04 10:52:54;;;;;;;8.00;5.70;;;;;;;27.54;50.42;99930.33;181257;1263;43215;-62
2023/07/04 10:57:21;;;;;;;7.70;6.10;;;;;;;27.34;50.35;99937.55;181256;1262;43106;-62
2023/07/04 11:01:40;;;;;;;11.40;6.30;;;;;;;27.20;50.65;99934.48;181304;1263;58514;-62
2023/07/04 11:05:56;;;;;;;11.40;5.70;;;;;;;27.21;50.86;99935.47;181316;1262;43833;-61
2023/07/04 11:10:03;;;;;;;7.70;5.50;;;;;;;27.25;50.60;99931.50;181333;1262;43066;-62
2023/07/04 11:14:16;;;;;;;25.80;9.10;;;;;;;27.06;50.58;99939.02;181288;1264;43052;-62
2023/07/04 11:18:26;;;;;;;9.40;7.00;;;;;;;27.26;52.02;99937.41;181295;1262;43390;-62
2023/07/04 11:23:00;;;;;;;12.30;6.90;;;;;;;27.33;51.58;99934.04;181303;1262;58012;-61
2023/07/04 11:27:13;;;;;;;10.80;6.90;;;;;;;27.33;50.37;99934.91;180790;1270;43152;-62
2023/07/04 11:31:27;;;;;;;24.60;9.30;;;;;;;27.57;50.90;99935.13;180846;1270;43740;-62
2023/07/04 11:35:32;;;;;;;13.40;6.50;;;;;;;27.49;49.51;99927.84;180721;1270;43123;-62
2023/07/04 11:39:39;;;;;;;9.90;6.50;;;;;;;27.54;49.41;99931.42;180829;1270;42995;-62
2023/07/04 11:43:45;;;;;;;10.40;8.00;;;;;;;27.58;49.82;99929.90;180835;1270;58528;-62
2023/07/04 11:47:52;;;;;;;10.70;6.90;;;;;;;27.63;49.14;99927.52;180837;1271;43742;-62
2023/07/04 11:52:04;;;;;;;8.80;6.00;;;;;;;27.81;50.15;99931.37;180772;1270;43477;-62
2023/07/04 11:56:19;;;;;;;13.20;7.60;;;;;;;27.91;50.37;99923.53;180740;1271;43141;-62
2023/07/04 12:06:00;;;;;;;13.70;8.30;;;;;;;27.80;48.71;99918.05;181353;1262;57298;-62
2023/07/04 12:10:19;;;;;;;12.40;9.40;;;;;;;27.68;48.86;99915.09;181365;1262;43033;-61
2023/07/04 12:14:34;;;;;;;12.60;8.10;;;;;;;27.50;49.29;99919.38;181337;1262;43222;-62
2023/07/04 12:18:39;;;;;;;12.70;8.70;;;;;;;27.75;49.85;99919.03;181370;1261;43741;-63
2023/07/04 12:23:07;;;;;;;22.00;10.10;;;;;;;27.99;49.29;99917.03;181391;1262;43378;-62
2023/07/04 12:27:13;;;;;;;15.00;8.90;;;;;;;27.91;48.86;99911.45;181287;1262;59965;-62
2023/07/04 12:31:19;;;;;;;13.30;9.10;;;;;;;28.17;50.36;99915.02;181351;1262;43798;-63
2023/07/04 12:35:30;;;;;;;13.40;10.30;;;;;;;28.34;48.71;99906.44;181386;1262;43492;-63
2023/07/04 12:39:43;;;;;;;13.00;8.60;;;;;;;28.39;48.05;99904.20;181307;1262;43243;-62
2023/07/04 12:43:55;;;;;;;10.70;8.60;;;;;;;28.35;47.71;99904.80;181374;1261;43362;-62
2023/07/04 12:48:10;;;;;;;13.10;8.90;;;;;;;28.45;47.84;99901.80;181342;1262;57062;-62
2023/07/04 12:52:16;;;;;;;15.30;10.60;;;;;;;28.43;47.82;99895.50;181216;1262;43782;-62
2023/07/04 12:56:21;;;;;;;12.50;9.40;;;;;;;28.46;47.72;99892.30;181346;1262;43230;-62
2023/07/04 13:00:42;;;;;;;12.60;9.30;;;;;;;28.23;48.12;99889.95;181364;1262;43019;-62
2023/07/04 13:04:46;;;;;;;12.50;8.80;;;;;;;28.36;49.98;99890.50;181340;1262;43845;-62
2023/07/04 13:08:54;;;;;;;14.20;9.40;;;;;;;28.18;48.47;99887.34;181295;1262;59763;-62
2023/07/04 13:12:58;;;;;;;17.40;10.30;;;;;;;27.92;49.28;99887.10;181190;1263;43774;-62
2023/07/04 13:17:11;;;;;;;12.00;9.10;;;;;;;28.12;49.68;99886.11;181318;1262;43047;-62
2023/07/04 13:21:35;;;;;;;12.20;9.00;;;;;;;28.22;49.32;99885.94;181274;1262;43802;-62
2023/07/04 13:25:39;;;;;;;79.40;21.40;;;;;;;28.38;48.59;99883.57;181302;1262;43011;-62
2023/07/04 13:29:58;;;;;;;12.50;8.60;;;;;;;28.74;50.64;99880.92;181385;1262;58037;-61
2023/07/04 13:34:13;;;;;;;14.80;11.40;;;;;;;28.99;48.41;99871.46;181333;1262;43838;-61
2023/07/04 13:39:11;;;;;;;18.10;10.50;;;;;;;29.08;46.39;99874.02;181416;1262;43731;-61
2023/07/04 13:43:17;;;;;;;18.20;12.10;;;;;;;29.19;45.54;99879.21;181283;1263;43532;-61
2023/07/04 13:47:28;;;;;;;13.20;11.10;;;;;;;29.35;45.82;99876.77;181286;1262;43723;-60
2023/07/04 13:51:33;;;;;;;14.10;10.40;;;;;;;29.38;46.24;99876.09;180732;1258;98130;-85
2023/07/04 13:55:37;;;;;;;30.20;14.90;;;;;;;29.43;44.81;99871.85;180901;1262;48510;-88
2023/07/04 13:59:41;;;;;;;16.20;11.80;;;;;;;29.20;43.66;99868.03;180860;1262;44179;-86
2023/07/04 14:03:46;;;;;;;16.80;12.60;;;;;;;29.22;44.08;99867.51;180799;1262;44125;-89
2023/07/04 14:07:52;;;;;;;18.70;14.10;;;;;;;29.38;44.57;99859.48;180861;1264;43883;-86
2023/07/04 14:12:00;;;;;;;15.90;10.90;;;;;;;29.43;43.49;99871.09;180918;1262;59557;-87
2023/07/04 14:16:07;;;;;;;21.70;13.30;;;;;;;29.31;45.09;99869.05;180991;1262;43788;-86
2023/07/04 14:20:13;;;;;;;17.10;12.40;;;;;;;29.10;44.31;99862.48;180977;1262;43861;-87
2023/07/04 14:24:18;;;;;;;13.90;12.00;;;;;;;29.07;44.49;99860.53;180874;1262;44047;-85
2023/07/04 14:28:22;;;;;;;17.90;11.90;;;;;;;28.87;43.59;99859.14;180963;1263;43877;-85
2023/07/04 14:32:26;;;;;;;23.10;13.00;;;;;;;28.88;44.48;99853.13;180539;1263;59759;-87
2023/07/04 14:36:30;;;;;;;16.50;13.30;;;;;;;28.97;44.38;99851.89;180929;1262;43983;-87
2023/07/04 14:40:37;;;;;;;18.70;11.60;;;;;;;29.04;43.98;99850.42;180920;1263;43797;-87
2023/07/04 14:44:45;;;;;;;17.10;12.70;;;;;;;28.94;43.31;99859.64;181021;1263;44096;-84
2023/07/04 14:48:49;;;;;;;16.50;12.20;;;;;;;29.04;43.78;99860.71;181007;1262;44026;-86
2023/07/04 14:52:53;;;;;;;16.80;10.40;;;;;;;28.99;44.03;99859.20;180441;1262;58170;-86
2023/07/04 14:57:01;;;;;;;16.60;12.90;;;;;;;29.05;43.95;99858.09;180953;1262;43634;-88
2023/07/04 15:01:06;;;;;;;20.40;12.70;;;;;;;28.72;43.84;99867.11;180957;1264;43731;-88
2023/07/04 15:05:11;;;;;;;15.70;11.80;;;;;;;28.10;44.76;99866.77;180907;1262;43917;-88
2023/07/04 15:09:15;;;;;;;18.60;11.60;;;;;;;27.96;46.83;99865.27;180952;1262;43890;-89
2023/07/04 15:13:19;;;;;;;16.90;13.60;;;;;;;28.15;46.63;99867.75;181016;1262;57691;-84
2023/07/04 15:17:24;;;;;;;18.20;14.10;;;;;;;28.51;47.53;99866.86;180964;1262;43920;-85
2023/07/04 15:21:28;;;;;;;;;;;;;;;28.74;45.34;99857.95;180831;1262;43875;-87
2023/07/04 15:25:33;;;;;;;17.80;12.70;;;;;;;28.99;46.32;99854.38;180955;1262;43590;-88
2023/07/04 15:29:38;;;;;;;16.50;11.60;;;;;;;29.12;45.94;99852.85;180955;1263;43834;-86
2023/07/04 15:33:43;;;;;;;16.10;11.00;;;;;;;29.08;45.44;99852.16;180962;1263;59368;-86
2023/07/04 15:37:47;;;;;;;19.30;11.70;;;;;;;28.93;44.55;99853.39;180862;1262;43835;-87
2023/07/04 15:41:51;;;;;;;14.40;9.00;;;;;;;28.82;45.05;99855.68;180900;1262;44209;-87
2023/07/04 15:46:00;;;;;;;17.10;11.10;;;;;;;28.60;45.76;99862.39;180770;1262;44083;-87
2023/07/04 15:50:04;;;;;;;14.10;9.60;;;;;;;28.51;45.78;99859.94;180857;1263;44124;-89
2023/07/04 15:54:11;;;;;;;18.70;9.80;;;;;;;28.32;45.65;99857.70;180910;1262;58252;-88
2023/07/04 15:58:18;;;;;;;19.60;10.60;;;;;;;28.19;46.90;99853.64;180776;1262;43667;-88
2023/07/04 16:02:26;;;;;;;14.00;10.10;;;;;;;28.05;46.64;99850.80;180831;1262;43660;-87
2023/07/04 16:06:34;;;;;;;14.90;8.80;;;;;;;27.96;47.13;99855.00;180776;1262;43754;-85
2023/07/04 16:10:38;;;;;;;11.70;9.50;;;;;;;27.85;47.11;99856.44;180587;1262;331940;-87
2023/07/04 16:14:43;;;;;;;16.20;10.20;;;;;;;27.81;47.52;99854.14;180843;1262;59578;-86
2023/07/04 16:18:48;;;;;;;13.00;8.70;;;;;;;27.77;47.72;99856.22;180861;1264;43762;-86
2023/07/04 16:22:52;;;;;;;24.40;9.70;;;;;;;27.73;48.03;99850.20;180954;1263;43832;-84
2023/07/04 16:26:59;;;;;;;11.20;9.00;;;;;;;27.81;48.10;99846.70;180809;1262;43780;-86
2023/07/04 16:31:05;;;;;;;13.60;9.30;;;;;;;27.61;47.01;99853.86;180919;1262;43821;-83
2023/07/04 16:35:10;;;;;;;15.20;9.90;;;;;;;27.59;48.54;99855.90;180985;1263;57920;-84
2023/07/04 16:39:14;;;;;;;19.00;9.90;;;;;;;27.49;48.44;99860.98;180935;1263;44021;-85
2023/07/04 16:43:18;;;;;;;11.40;9.90;;;;;;;27.40;48.32;99857.20;180903;1262;43489;-85
2023/07/04 16:47:23;;;;;;;14.40;10.20;;;;;;;27.41;48.78;99862.54;180990;1262;43817;-85
2023/07/04 16:51:27;;;;;;;11.40;8.80;;;;;;;27.31;49.00;99861.71;180860;1263;44032;-86
2023/07/04 16:55:36;;;;;;;12.20;8.60;;;;;;;27.22;48.47;99865.50;180929;1263;57967;-85
2023/07/04 16:59:43;;;;;;;29.50;9.50;;;;;;;27.12;49.26;99865.86;181027;1262;44000;-85
2023/07/04 17:03:48;;;;;;;15.00;9.00;;;;;;;27.02;49.62;99864.88;180913;1262;43680;-86
2023/07/04 17:07:52;;;;;;;16.10;9.60;;;;;;;26.87;50.30;99865.68;180889;1262;43830;-85
2023/07/04 17:12:29;;;;;;;16.40;9.90;;;;;;;26.74;51.28;99867.00;180908;1260;83889;-59
2023/07/04 17:16:47;;;;;;;12.50;9.70;;;;;;;26.58;52.04;99865.57;179091;1266;58183;-60
2023/07/04 17:20:51;;;;;;;13.90;9.30;;;;;;;26.53;52.08;99866.98;180981;1267;43102;-61
2023/07/04 17:24:56;;;;;;;16.60;9.90;;;;;;;26.40;51.47;99865.44;181006;1267;43171;-60
2023/07/04 17:29:15;;;;;;;18.00;9.80;;;;;;;26.28;51.26;99864.95;181011;1266;43513;-61
2023/07/04 17:33:18;;;;;;;14.40;10.80;;;;;;;26.16;52.04;99869.50;181026;1267;43807;-61
2023/07/04 17:37:27;;;;;;;16.90;10.20;;;;;;;25.95;53.56;99874.04;181020;1266;57092;-62
2023/07/04 17:41:30;;;;;;;14.20;10.60;;;;;;;25.75;55.03;99874.69;181021;1267;43849;-61
2023/07/04 17:45:33;;;;;;;24.30;12.00;;;;;;;25.57;56.01;99875.02;180970;1267;43114;-61
2023/07/04 17:49:36;;;;;;;13.10;9.60;;;;;;;25.40;57.26;99874.59;181023;1267;43067;-61
2023/07/04 17:53:39;;;;;;;17.70;11.60;;;;;;;25.16;58.28;99876.03;181014;1270;43019;-61
2023/07/04 17:57:43;;;;;;;15.90;10.70;;;;;;;24.93;59.28;99878.71;180993;1267;58054;-61
2023/07/04 18:01:46;;;;;;;16.50;11.00;;;;;;;24.69;60.60;99882.41;180999;1267;43053;-61
2023/07/04 18:05:57;;;;;;;16.90;12.10;;;;;;;24.30;62.09;99888.65;180985;1267;43037;-61
2023/07/04 18:10:00;;;;;;;20.00;14.10;;;;;;;24.04;62.81;99899.07;181007;1267;43127;-60
2023/07/04 18:14:04;;;;;;;14.90;11.30;;;;;;;23.96;64.08;99898.98;181067;1267;43137;-61
2023/07/04 18:18:07;;;;;;;23.10;14.70;;;;;;;23.92;64.76;99909.53;180972;1267;59902;-61
2023/07/04 18:22:10;;;;;;;24.70;13.10;;;;;;;23.90;65.17;99916.23;181029;1267;43820;-60
2023/07/04 18:26:21;;;;;;;22.50;13.80;;;;;;;23.85;67.26;99918.71;181064;1267;43050;-60
2023/07/04 18:30:24;;;;;;;15.20;10.90;;;;;;;23.79;67.16;99922.76;181022;1267;43455;-61
2023/07/04 18:34:29;;;;;;;18.30;13.90;;;;;;;23.73;67.80;99925.23;181044;1267;43084;-61
2023/07/04 18:38:34;;;;;;;20.20;13.20;;;;;;;23.68;68.19;99931.09;180991;1267;58338;-61
2023/07/04 18:42:37;;;;;;;49.80;17.40;;;;;;;23.59;68.45;99932.54;180996;1267;43659;-61
2023/07/04 18:46:44;;;;;;;;;;;;;;;23.46;68.90;99935.42;181033;1267;43266;-61
2023/07/04 18:50:48;;;;;;;75.70;21.50;;;;;;;23.31;69.47;99937.56;181043;1267;43550;-61
2023/07/04 18:54:54;;;;;;;36.70;15.40;;;;;;;23.14;70.53;99946.66;181023;1266;43616;-61
2023/07/04 18:58:58;;;;;;;;;;;;;;;22.95;70.51;99951.43;181038;1266;60092;-63
2023/07/04 19:03:02;;;;;;;80.40;23.40;;;;;;;22.75;71.44;99954.90;181017;1267;43587;-61
2023/07/04 19:07:34;;;;;;;90.10;25.00;;;;;;;22.58;72.03;99963.55;181036;1266;43079;-61
2023/07/04 19:11:41;;;;;;;94.40;25.00;;;;;;;22.37;73.04;99977.77;181057;1267;43744;-60
2023/07/04 19:15:57;;;;;;;107.10;28.90;;;;;;;22.17;73.83;99988.98;181034;1267;43018;-61
2023/07/04 19:20:01;;;;;;;68.50;22.50;;;;;;;21.96;74.47;99993.61;180966;1266;58046;-61
2023/07/04 19:24:04;;;;;;;51.80;21.40;;;;;;;21.78;74.78;100001.11;180992;1267;43179;-60
2023/07/04 19:28:09;;;;;;;29.20;16.40;;;;;;;21.62;74.28;100010.65;180981;1267;43558;-61
2023/07/04 19:32:13;;;;;;;21.30;12.60;;;;;;;21.44;74.17;100015.30;181048;1266;43131;-60
2023/07/04 19:36:16;;;;;;;31.70;17.00;;;;;;;21.26;75.23;100024.98;180975;1267;43020;-61
2023/07/04 19:40:19;;;;;;;34.10;15.20;;;;;;;21.09;76.45;100033.38;181019;1267;58383;-61
2023/07/04 19:44:23;;;;;;;21.40;13.60;;;;;;;20.93;77.31;100043.56;180990;1267;43684;-60
2023/07/04 19:48:28;;;;;;;18.40;14.50;;;;;;;20.80;77.43;100045.19;180969;1267;43884;-64
2023/07/04 19:52:44;;;;;;;28.40;15.40;;;;;;;20.72;76.60;100047.29;181023;1266;43721;-60
2023/07/04 19:56:55;;;;;;;21.80;14.50;;;;;;;20.60;77.45;100056.94;181009;1266;42950;-61
2023/07/04 20:01:04;;;;;;;23.00;14.80;;;;;;;20.46;78.00;100052.07;180953;1266;59211;-61
2023/07/04 20:05:10;;;;;;;21.40;14.70;;;;;;;20.34;78.67;100051.39;180932;1267;43233;-61
2023/07/04 20:09:13;;;;;;;19.70;14.10;;;;;;;20.19;78.88;100055.52;181037;1266;43667;-63
2023/07/04 20:13:16;;;;;;;419.80;93.70;;;;;;;20.07;79.44;100060.42;180953;1265;44095;-60
2023/07/04 20:17:20;;;;;;;104.30;29.90;;;;;;;19.93;79.65;100057.05;181022;1266;44063;-60
2023/07/04 20:21:51;;;;;;;105.30;29.00;;;;;;;19.82;79.72;100058.80;181016;1266;58438;-60